Eems Servant — PBTI — position and weather

sailwx.info

Track history (hours):
 
Tides and Currents Weather Stations Pressure Air Temp Water Temp Dewpoint Dewpoint Depression Visibility Wind Speed Wind Dir Waves Ship Positions

Eems Servant

Last reported at 2014-Sep-16 08:31 UTC. Time now 2014-Sep-20 06:03 UTC.
Position N 55°51' W 006°59'.

Length 87 m; draft 4.3 m.

Type: Cargo ship. MMSI: 246236000.

Date/timePositionNaut miles runAvg speedWind from/ knotsBaromVisibWave heightAir tempDewpointWater temp
2014-Sep-16 08:31N 55°51' W 006°59'1010.4
2014-Sep-16 07:33N 55°43' W 006°46'1111.4
2014-Sep-16 06:33N 55°35' W 006°32'1110.9
2014-Sep-16 05:33N 55°28' W 006°18'10 9.7
2014-Sep-16 04:33N 55°24' W 006°02'9 8.9
2014-Sep-16 03:33N 55°16' W 005°54'8 8.0
2014-Sep-16 02:33N 55°09' W 005°47'8 8.2
2014-Sep-16 01:33N 55°02' W 005°40'8 7.8
2014-Sep-16 00:33N 54°55' W 005°33'8 8.2
2014-Sep-15 23:33N 54°48' W 005°26'8 8.5
2014-Sep-15 22:34N 54°40' W 005°22'9 8.9
2014-Sep-15 21:33N 54°31' W 005°20'9 9.3
2014-Sep-15 20:33N 54°22' W 005°18'9 9.4
2014-Sep-15 19:33N 54°13' W 005°20'  
2014-Sep-13 10:23N 46°32' W 002°49'8 9.5
2014-Sep-13 09:33N 46°27' W 002°40'9 9.3
2014-Sep-13 08:33N 46°21' W 002°29'9 9.0
2014-Sep-13 07:33N 46°15' W 002°19'20 9.1
2014-Sep-13 05:20N 46°03' W 001°57'36 0.8
2014-Sep-11 05:14N 45°34' W 001°24'0 0.1
2014-Sep-11 04:33N 45°34' W 001°24'17 7.4
2014-Sep-11 02:15N 45°48' W 001°38'7 7.6
2014-Sep-11 01:23N 45°53' W 001°44'6 7.2
2014-Sep-11 00:33N 45°58' W 001°49'7 7.4
2014-Sep-10 23:34N 46°03' W 001°57'8 7.7
2014-Sep-10 22:33N 46°08' W 002°06'8 7.4
2014-Sep-10 21:31N 46°13' W 002°15'7 7.4
2014-Sep-10 20:34N 46°17' W 002°23'8 7.6
2014-Sep-10 19:33N 46°22' W 002°31'8 7.8
2014-Sep-10 18:29N 46°27' W 002°41'125 9.3
2014-Sep-10 05:05N 47°47' W 005°01'  
2014-Sep-07 08:32N 50°24' W 001°14'7 7.1
2014-Sep-07 07:33N 50°26' W 001°04'8 6.1
2014-Sep-07 06:18N 50°27' W 000°52'5 6.3
2014-Sep-07 05:32N 50°28' W 000°44'7 7.4
2014-Sep-07 04:33N 50°29' W 000°33'9 8.7
2014-Sep-07 03:33N 50°30' W 000°20'10 9.9
2014-Sep-07 02:33N 50°32' W 000°04'1410.5
2014-Sep-07 01:15N 50°36' E 000°17'710.5
2014-Sep-07 00:33N 50°38' E 000°28'10 9.8
2014-Sep-06 23:33N 50°42' E 000°41'9 9.0
2014-Sep-06 22:33N 50°47' E 000°53'9 8.0
2014-Sep-06 21:29N 50°52' E 001°04'1919.0
2014-Sep-06 20:30N 51°04' E 001°27'4 4.2
2014-Sep-06 19:33N 51°02' E 001°22'10 9.7
2014-Sep-06 18:33N 51°08' E 001°34'1111.2
2014-Sep-06 17:33N 51°16' E 001°47'1111.3
2014-Sep-06 16:33N 51°26' E 001°56'1010.1
2014-Sep-06 15:33N 51°33' E 002°06'9 9.3
2014-Sep-06 14:33N 51°40' E 002°17'  
Track history (hours):
 
Tides and Currents Weather Stations Pressure Air Temp Water Temp Dewpoint Dewpoint Depression Visibility Wind Speed Wind Dir Waves Ship Positions

Eems Servant

Last reported at 2014-Sep-16 08:31 UTC. Time now 2014-Sep-20 06:03 UTC.
Position N 55°51' W 006°59'.

Length 87 m; draft 4.3 m.

Type: Cargo ship. MMSI: 246236000.

Date/timePositionNaut miles runAvg speedWind from/ knotsBaromVisibWave heightAir tempDewpointWater temp
2014-Sep-16 08:31N 55°51' W 006°59'1010.4
2014-Sep-16 07:33N 55°43' W 006°46'1111.4
2014-Sep-16 06:33N 55°35' W 006°32'1110.9
2014-Sep-16 05:33N 55°28' W 006°18'10 9.7
2014-Sep-16 04:33N 55°24' W 006°02'9 8.9
2014-Sep-16 03:33N 55°16' W 005°54'8 8.0
2014-Sep-16 02:33N 55°09' W 005°47'8 8.2
2014-Sep-16 01:33N 55°02' W 005°40'8 7.8
2014-Sep-16 00:33N 54°55' W 005°33'8 8.2
2014-Sep-15 23:33N 54°48' W 005°26'8 8.5
2014-Sep-15 22:34N 54°40' W 005°22'9 8.9
2014-Sep-15 21:33N 54°31' W 005°20'9 9.3
2014-Sep-15 20:33N 54°22' W 005°18'9 9.4
2014-Sep-15 19:33N 54°13' W 005°20'  
2014-Sep-13 10:23N 46°32' W 002°49'8 9.5
2014-Sep-13 09:33N 46°27' W 002°40'9 9.3
2014-Sep-13 08:33N 46°21' W 002°29'9 9.0
2014-Sep-13 07:33N 46°15' W 002°19'20 9.1
2014-Sep-13 05:20N 46°03' W 001°57'36 0.8
2014-Sep-11 05:14N 45°34' W 001°24'0 0.1
2014-Sep-11 04:33N 45°34' W 001°24'17 7.4
2014-Sep-11 02:15N 45°48' W 001°38'7 7.6
2014-Sep-11 01:23N 45°53' W 001°44'6 7.2
2014-Sep-11 00:33N 45°58' W 001°49'7 7.4
2014-Sep-10 23:34N 46°03' W 001°57'8 7.7
2014-Sep-10 22:33N 46°08' W 002°06'8 7.4
2014-Sep-10 21:31N 46°13' W 002°15'7 7.4
2014-Sep-10 20:34N 46°17' W 002°23'8 7.6
2014-Sep-10 19:33N 46°22' W 002°31'8 7.8
2014-Sep-10 18:29N 46°27' W 002°41'125 9.3
2014-Sep-10 05:05N 47°47' W 005°01'  
2014-Sep-07 08:32N 50°24' W 001°14'7 7.1
2014-Sep-07 07:33N 50°26' W 001°04'8 6.1
2014-Sep-07 06:18N 50°27' W 000°52'5 6.3
2014-Sep-07 05:32N 50°28' W 000°44'7 7.4
2014-Sep-07 04:33N 50°29' W 000°33'9 8.7
2014-Sep-07 03:33N 50°30' W 000°20'10 9.9
2014-Sep-07 02:33N 50°32' W 000°04'1410.5
2014-Sep-07 01:15N 50°36' E 000°17'710.5
2014-Sep-07 00:33N 50°38' E 000°28'10 9.8
2014-Sep-06 23:33N 50°42' E 000°41'9 9.0
2014-Sep-06 22:33N 50°47' E 000°53'9 8.0
2014-Sep-06 21:29N 50°52' E 001°04'1919.0
2014-Sep-06 20:30N 51°04' E 001°27'4 4.2
2014-Sep-06 19:33N 51°02' E 001°22'10 9.7
2014-Sep-06 18:33N 51°08' E 001°34'1111.2
2014-Sep-06 17:33N 51°16' E 001°47'1111.3
2014-Sep-06 16:33N 51°26' E 001°56'1010.1
2014-Sep-06 15:33N 51°33' E 002°06'9 9.3
2014-Sep-06 14:33N 51°40' E 002°17'  

Dump ship's entire track history